sensor_id;sensor_type;location;lat;lon;timestamp;P1;durP1;ratioP1;P2;durP2;ratioP2
50350;SDS011;36250;48.740;22.174;2022-12-20T00:00:09;129.90;;;61.92;;
50350;SDS011;36250;48.740;22.174;2022-12-20T00:02:35;123.28;;;55.72;;
50350;SDS011;36250;48.740;22.174;2022-12-20T00:05:00;99.80;;;51.63;;
50350;SDS011;36250;48.740;22.174;2022-12-20T00:07:26;88.45;;;43.47;;
50350;SDS011;36250;48.740;22.174;2022-12-20T00:09:51;98.22;;;48.65;;
50350;SDS011;36250;48.740;22.174;2022-12-20T00:12:16;89.65;;;42.20;;
50350;SDS011;36250;48.740;22.174;2022-12-20T00:14:42;78.88;;;36.20;;
50350;SDS011;36250;48.740;22.174;2022-12-20T00:17:07;108.90;;;48.63;;
50350;SDS011;36250;48.740;22.174;2022-12-20T00:19:32;87.82;;;41.35;;
50350;SDS011;36250;48.740;22.174;2022-12-20T00:21:58;93.65;;;46.10;;
50350;SDS011;36250;48.740;22.174;2022-12-20T00:24:23;85.63;;;40.55;;
50350;SDS011;36250;48.740;22.174;2022-12-20T00:26:49;82.10;;;36.28;;
50350;SDS011;36250;48.740;22.174;2022-12-20T00:29:14;70.90;;;34.55;;
50350;SDS011;36250;48.740;22.174;2022-12-20T00:31:39;80.20;;;38.40;;
50350;SDS011;36250;48.740;22.174;2022-12-20T00:34:05;80.60;;;38.85;;
50350;SDS011;36250;48.740;22.174;2022-12-20T00:36:30;79.22;;;38.10;;
50350;SDS011;36250;48.740;22.174;2022-12-20T00:38:57;51.88;;;26.67;;
50350;SDS011;36250;48.740;22.174;2022-12-20T00:41:25;55.15;;;26.30;;
50350;SDS011;36250;48.740;22.174;2022-12-20T00:43:52;59.53;;;28.45;;
50350;SDS011;36250;48.740;22.174;2022-12-20T00:46:19;54.03;;;26.77;;
50350;SDS011;36250;48.740;22.174;2022-12-20T00:48:47;56.75;;;27.23;;
50350;SDS011;36250;48.740;22.174;2022-12-20T00:51:13;61.22;;;26.85;;
50350;SDS011;36250;48.740;22.174;2022-12-20T00:53:41;49.47;;;24.10;;
50350;SDS011;36250;48.740;22.174;2022-12-20T00:56:07;48.28;;;21.90;;
50350;SDS011;36250;48.740;22.174;2022-12-20T00:58:34;42.80;;;21.23;;
50350;SDS011;36250;48.740;22.174;2022-12-20T01:01:01;45.40;;;19.65;;
50350;SDS011;36250;48.740;22.174;2022-12-20T01:03:27;44.78;;;20.23;;
50350;SDS011;36250;48.740;22.174;2022-12-20T01:05:56;39.85;;;19.48;;
50350;SDS011;36250;48.740;22.174;2022-12-20T01:08:25;48.67;;;21.65;;
50350;SDS011;36250;48.740;22.174;2022-12-20T01:11:01;38.40;;;20.15;;
50350;SDS011;36250;48.740;22.174;2022-12-20T01:13:28;35.10;;;18.42;;
50350;SDS011;36250;48.740;22.174;2022-12-20T01:15:55;40.42;;;20.52;;
50350;SDS011;36250;48.740;22.174;2022-12-20T01:18:20;39.65;;;19.70;;
50350;SDS011;36250;48.740;22.174;2022-12-20T01:20:46;42.15;;;21.63;;
50350;SDS011;36250;48.740;22.174;2022-12-20T01:23:11;37.25;;;20.15;;
50350;SDS011;36250;48.740;22.174;2022-12-20T01:25:37;41.20;;;19.55;;
50350;SDS011;36250;48.740;22.174;2022-12-20T01:28:02;36.45;;;19.88;;
50350;SDS011;36250;48.740;22.174;2022-12-20T01:30:27;40.97;;;20.05;;
50350;SDS011;36250;48.740;22.174;2022-12-20T01:32:53;48.67;;;22.77;;
50350;SDS011;36250;48.740;22.174;2022-12-20T01:35:18;45.75;;;20.70;;
50350;SDS011;36250;48.740;22.174;2022-12-20T01:37:43;48.17;;;23.20;;
50350;SDS011;36250;48.740;22.174;2022-12-20T01:40:09;47.28;;;21.35;;
50350;SDS011;36250;48.740;22.174;2022-12-20T01:42:34;49.42;;;23.48;;
50350;SDS011;36250;48.740;22.174;2022-12-20T01:45:00;48.13;;;23.77;;
50350;SDS011;36250;48.740;22.174;2022-12-20T01:47:26;51.53;;;24.00;;
50350;SDS011;36250;48.740;22.174;2022-12-20T01:49:56;50.38;;;23.58;;
50350;SDS011;36250;48.740;22.174;2022-12-20T01:52:26;56.47;;;25.70;;
50350;SDS011;36250;48.740;22.174;2022-12-20T01:55:17;44.10;;;22.50;;
50350;SDS011;36250;48.740;22.174;2022-12-20T01:57:48;47.67;;;22.98;;
50350;SDS011;36250;48.740;22.174;2022-12-20T02:00:19;62.75;;;28.77;;
50350;SDS011;36250;48.740;22.174;2022-12-20T02:02:45;68.00;;;29.98;;
50350;SDS011;36250;48.740;22.174;2022-12-20T02:05:12;66.82;;;30.05;;
50350;SDS011;36250;48.740;22.174;2022-12-20T02:07:38;76.07;;;33.55;;
50350;SDS011;36250;48.740;22.174;2022-12-20T02:10:06;83.45;;;37.15;;
50350;SDS011;36250;48.740;22.174;2022-12-20T02:12:39;119.63;;;53.65;;
50350;SDS011;36250;48.740;22.174;2022-12-20T02:21:07;96.75;;;43.80;;
50350;SDS011;36250;48.740;22.174;2022-12-20T02:26:45;73.03;;;33.17;;
50350;SDS011;36250;48.740;22.174;2022-12-20T02:31:47;53.08;;;27.20;;
50350;SDS011;36250;48.740;22.174;2022-12-20T02:34:37;49.53;;;24.30;;
50350;SDS011;36250;48.740;22.174;2022-12-20T02:37:05;45.40;;;21.85;;
50350;SDS011;36250;48.740;22.174;2022-12-20T02:39:30;43.67;;;22.00;;
50350;SDS011;36250;48.740;22.174;2022-12-20T02:42:00;41.63;;;20.98;;
50350;SDS011;36250;48.740;22.174;2022-12-20T02:44:33;46.80;;;22.33;;
50350;SDS011;36250;48.740;22.174;2022-12-20T02:47:22;43.10;;;21.95;;
50350;SDS011;36250;48.740;22.174;2022-12-20T02:49:50;43.08;;;21.88;;
50350;SDS011;36250;48.740;22.174;2022-12-20T02:52:17;42.83;;;22.30;;
50350;SDS011;36250;48.740;22.174;2022-12-20T02:54:45;52.90;;;24.38;;
50350;SDS011;36250;48.740;22.174;2022-12-20T02:57:15;50.70;;;23.23;;
50350;SDS011;36250;48.740;22.174;2022-12-20T02:59:54;56.45;;;28.80;;
50350;SDS011;36250;48.740;22.174;2022-12-20T03:02:26;54.30;;;27.52;;
50350;SDS011;36250;48.740;22.174;2022-12-20T03:04:52;51.38;;;27.67;;
50350;SDS011;36250;48.740;22.174;2022-12-20T03:07:18;51.60;;;25.92;;
50350;SDS011;36250;48.740;22.174;2022-12-20T03:09:43;49.47;;;25.65;;
50350;SDS011;36250;48.740;22.174;2022-12-20T03:12:10;51.25;;;24.50;;
50350;SDS011;36250;48.740;22.174;2022-12-20T03:14:37;50.35;;;25.42;;
50350;SDS011;36250;48.740;22.174;2022-12-20T03:17:04;52.63;;;25.50;;
50350;SDS011;36250;48.740;22.174;2022-12-20T03:19:29;48.42;;;23.92;;
50350;SDS011;36250;48.740;22.174;2022-12-20T03:21:55;55.83;;;24.65;;
50350;SDS011;36250;48.740;22.174;2022-12-20T03:24:20;49.78;;;24.88;;
50350;SDS011;36250;48.740;22.174;2022-12-20T03:26:46;52.00;;;25.23;;
50350;SDS011;36250;48.740;22.174;2022-12-20T03:29:11;55.13;;;24.73;;
50350;SDS011;36250;48.740;22.174;2022-12-20T03:31:36;55.97;;;24.08;;
50350;SDS011;36250;48.740;22.174;2022-12-20T03:34:02;46.25;;;22.67;;
50350;SDS011;36250;48.740;22.174;2022-12-20T03:36:28;50.65;;;24.00;;
50350;SDS011;36250;48.740;22.174;2022-12-20T03:38:54;51.00;;;23.52;;
50350;SDS011;36250;48.740;22.174;2022-12-20T03:41:19;49.72;;;24.05;;
50350;SDS011;36250;48.740;22.174;2022-12-20T03:43:46;51.65;;;25.95;;
50350;SDS011;36250;48.740;22.174;2022-12-20T03:46:14;56.80;;;25.98;;
50350;SDS011;36250;48.740;22.174;2022-12-20T03:48:39;49.20;;;26.30;;
50350;SDS011;36250;48.740;22.174;2022-12-20T03:51:05;54.40;;;27.23;;
50350;SDS011;36250;48.740;22.174;2022-12-20T03:53:30;55.30;;;27.70;;
50350;SDS011;36250;48.740;22.174;2022-12-20T03:55:56;51.47;;;26.00;;
50350;SDS011;36250;48.740;22.174;2022-12-20T03:58:21;60.58;;;28.83;;
50350;SDS011;36250;48.740;22.174;2022-12-20T04:00:47;57.40;;;27.85;;
50350;SDS011;36250;48.740;22.174;2022-12-20T04:03:12;56.13;;;27.58;;
50350;SDS011;36250;48.740;22.174;2022-12-20T04:05:38;49.05;;;25.50;;
50350;SDS011;36250;48.740;22.174;2022-12-20T04:08:03;57.75;;;27.67;;
50350;SDS011;36250;48.740;22.174;2022-12-20T04:10:28;51.95;;;24.73;;
50350;SDS011;36250;48.740;22.174;2022-12-20T04:12:54;47.08;;;25.10;;
50350;SDS011;36250;48.740;22.174;2022-12-20T04:15:19;48.97;;;25.98;;
50350;SDS011;36250;48.740;22.174;2022-12-20T04:17:44;51.88;;;26.27;;
50350;SDS011;36250;48.740;22.174;2022-12-20T04:20:12;53.95;;;25.08;;
50350;SDS011;36250;48.740;22.174;2022-12-20T04:22:45;39.92;;;20.98;;
50350;SDS011;36250;48.740;22.174;2022-12-20T04:25:11;47.85;;;24.20;;
50350;SDS011;36250;48.740;22.174;2022-12-20T04:27:37;49.40;;;26.08;;
50350;SDS011;36250;48.740;22.174;2022-12-20T04:30:02;67.07;;;32.38;;
50350;SDS011;36250;48.740;22.174;2022-12-20T04:32:27;55.75;;;27.33;;
50350;SDS011;36250;48.740;22.174;2022-12-20T04:34:53;54.15;;;29.00;;
50350;SDS011;36250;48.740;22.174;2022-12-20T04:37:18;66.38;;;32.10;;
50350;SDS011;36250;48.740;22.174;2022-12-20T04:39:43;61.85;;;32.78;;
50350;SDS011;36250;48.740;22.174;2022-12-20T04:42:09;61.38;;;31.30;;
50350;SDS011;36250;48.740;22.174;2022-12-20T04:44:34;56.72;;;31.45;;
50350;SDS011;36250;48.740;22.174;2022-12-20T04:46:59;49.83;;;26.92;;
50350;SDS011;36250;48.740;22.174;2022-12-20T04:49:24;48.45;;;25.02;;
50350;SDS011;36250;48.740;22.174;2022-12-20T04:51:50;47.53;;;23.77;;
50350;SDS011;36250;48.740;22.174;2022-12-20T04:54:15;52.55;;;24.17;;
50350;SDS011;36250;48.740;22.174;2022-12-20T04:56:40;53.72;;;26.58;;
50350;SDS011;36250;48.740;22.174;2022-12-20T04:59:06;52.20;;;27.02;;
50350;SDS011;36250;48.740;22.174;2022-12-20T05:01:31;52.30;;;27.20;;
50350;SDS011;36250;48.740;22.174;2022-12-20T05:03:56;54.42;;;28.67;;
50350;SDS011;36250;48.740;22.174;2022-12-20T05:06:22;52.85;;;27.77;;
50350;SDS011;36250;48.740;22.174;2022-12-20T05:08:47;56.10;;;27.25;;
50350;SDS011;36250;48.740;22.174;2022-12-20T05:11:13;55.22;;;27.65;;
50350;SDS011;36250;48.740;22.174;2022-12-20T05:13:38;54.75;;;28.35;;
50350;SDS011;36250;48.740;22.174;2022-12-20T05:16:04;58.42;;;28.55;;
50350;SDS011;36250;48.740;22.174;2022-12-20T05:18:29;62.83;;;30.98;;
50350;SDS011;36250;48.740;22.174;2022-12-20T05:20:56;70.80;;;34.88;;
50350;SDS011;36250;48.740;22.174;2022-12-20T05:23:41;74.25;;;35.55;;
50350;SDS011;36250;48.740;22.174;2022-12-20T05:26:26;66.40;;;33.90;;
50350;SDS011;36250;48.740;22.174;2022-12-20T05:28:55;58.63;;;31.20;;
50350;SDS011;36250;48.740;22.174;2022-12-20T05:31:20;50.40;;;26.23;;
50350;SDS011;36250;48.740;22.174;2022-12-20T05:33:45;45.47;;;24.77;;
50350;SDS011;36250;48.740;22.174;2022-12-20T05:36:11;48.38;;;23.13;;
50350;SDS011;36250;48.740;22.174;2022-12-20T05:38:36;38.63;;;22.58;;
50350;SDS011;36250;48.740;22.174;2022-12-20T05:41:02;47.50;;;23.98;;
50350;SDS011;36250;48.740;22.174;2022-12-20T05:43:29;40.30;;;21.90;;
50350;SDS011;36250;48.740;22.174;2022-12-20T05:45:55;48.00;;;22.15;;
50350;SDS011;36250;48.740;22.174;2022-12-20T05:48:20;39.70;;;20.80;;
50350;SDS011;36250;48.740;22.174;2022-12-20T05:50:46;38.20;;;20.98;;
50350;SDS011;36250;48.740;22.174;2022-12-20T05:53:11;45.10;;;24.08;;
50350;SDS011;36250;48.740;22.174;2022-12-20T05:55:49;39.03;;;21.65;;
50350;SDS011;36250;48.740;22.174;2022-12-20T05:58:15;38.85;;;20.02;;
50350;SDS011;36250;48.740;22.174;2022-12-20T06:00:41;43.15;;;20.15;;
50350;SDS011;36250;48.740;22.174;2022-12-20T06:03:08;41.80;;;21.10;;
50350;SDS011;36250;48.740;22.174;2022-12-20T06:05:35;46.97;;;21.95;;
50350;SDS011;36250;48.740;22.174;2022-12-20T06:08:02;46.28;;;21.67;;
50350;SDS011;36250;48.740;22.174;2022-12-20T06:10:28;43.28;;;22.20;;
50350;SDS011;36250;48.740;22.174;2022-12-20T06:12:54;35.80;;;18.15;;
50350;SDS011;36250;48.740;22.174;2022-12-20T06:15:19;31.70;;;16.85;;
50350;SDS011;36250;48.740;22.174;2022-12-20T06:17:44;28.98;;;15.77;;
50350;SDS011;36250;48.740;22.174;2022-12-20T06:20:10;36.78;;;19.80;;
50350;SDS011;36250;48.740;22.174;2022-12-20T06:22:36;30.88;;;16.45;;
50350;SDS011;36250;48.740;22.174;2022-12-20T06:25:01;30.08;;;16.63;;
50350;SDS011;36250;48.740;22.174;2022-12-20T06:27:27;34.97;;;18.15;;
50350;SDS011;36250;48.740;22.174;2022-12-20T06:29:52;35.17;;;18.70;;
50350;SDS011;36250;48.740;22.174;2022-12-20T06:32:18;41.22;;;20.40;;
50350;SDS011;36250;48.740;22.174;2022-12-20T06:34:44;57.65;;;26.63;;
50350;SDS011;36250;48.740;22.174;2022-12-20T06:37:10;35.85;;;17.88;;
50350;SDS011;36250;48.740;22.174;2022-12-20T06:39:35;30.92;;;15.32;;
50350;SDS011;36250;48.740;22.174;2022-12-20T06:42:01;30.38;;;16.17;;
50350;SDS011;36250;48.740;22.174;2022-12-20T06:44:26;31.13;;;16.15;;
50350;SDS011;36250;48.740;22.174;2022-12-20T06:46:51;39.22;;;18.83;;
50350;SDS011;36250;48.740;22.174;2022-12-20T06:49:17;33.53;;;16.92;;
50350;SDS011;36250;48.740;22.174;2022-12-20T06:51:42;33.92;;;16.35;;
50350;SDS011;36250;48.740;22.174;2022-12-20T06:54:07;29.08;;;15.27;;
50350;SDS011;36250;48.740;22.174;2022-12-20T06:56:33;32.58;;;17.20;;
50350;SDS011;36250;48.740;22.174;2022-12-20T06:58:58;31.27;;;16.42;;
50350;SDS011;36250;48.740;22.174;2022-12-20T07:01:24;32.55;;;17.63;;
50350;SDS011;36250;48.740;22.174;2022-12-20T07:03:49;32.90;;;17.92;;
50350;SDS011;36250;48.740;22.174;2022-12-20T07:06:14;26.80;;;14.57;;
50350;SDS011;36250;48.740;22.174;2022-12-20T07:08:40;28.42;;;14.65;;
50350;SDS011;36250;48.740;22.174;2022-12-20T07:11:05;37.58;;;19.10;;
50350;SDS011;36250;48.740;22.174;2022-12-20T07:13:31;34.50;;;18.55;;
50350;SDS011;36250;48.740;22.174;2022-12-20T07:16:00;33.92;;;17.52;;
50350;SDS011;36250;48.740;22.174;2022-12-20T07:18:27;25.90;;;15.60;;
50350;SDS011;36250;48.740;22.174;2022-12-20T07:20:52;29.33;;;15.27;;
50350;SDS011;36250;48.740;22.174;2022-12-20T07:23:18;33.88;;;15.80;;
50350;SDS011;36250;48.740;22.174;2022-12-20T07:25:51;29.73;;;15.13;;
50350;SDS011;36250;48.740;22.174;2022-12-20T07:28:18;32.97;;;16.25;;
50350;SDS011;36250;48.740;22.174;2022-12-20T07:30:43;31.10;;;17.13;;
50350;SDS011;36250;48.740;22.174;2022-12-20T07:33:09;29.92;;;16.88;;
50350;SDS011;36250;48.740;22.174;2022-12-20T07:35:34;30.20;;;16.25;;
50350;SDS011;36250;48.740;22.174;2022-12-20T07:37:59;32.75;;;16.60;;
50350;SDS011;36250;48.740;22.174;2022-12-20T07:40:25;33.05;;;17.67;;
50350;SDS011;36250;48.740;22.174;2022-12-20T07:42:50;59.70;;;28.83;;
50350;SDS011;36250;48.740;22.174;2022-12-20T07:45:15;59.33;;;32.35;;
50350;SDS011;36250;48.740;22.174;2022-12-20T07:47:41;50.17;;;28.38;;
50350;SDS011;36250;48.740;22.174;2022-12-20T07:50:07;50.30;;;25.98;;
50350;SDS011;36250;48.740;22.174;2022-12-20T07:52:33;82.55;;;41.88;;
50350;SDS011;36250;48.740;22.174;2022-12-20T07:55:01;47.30;;;29.15;;
50350;SDS011;36250;48.740;22.174;2022-12-20T07:57:39;48.40;;;24.00;;
50350;SDS011;36250;48.740;22.174;2022-12-20T08:00:09;39.83;;;20.92;;
50350;SDS011;36250;48.740;22.174;2022-12-20T08:02:37;42.92;;;23.25;;
50350;SDS011;36250;48.740;22.174;2022-12-20T08:05:06;35.75;;;18.02;;
50350;SDS011;36250;48.740;22.174;2022-12-20T08:07:33;39.63;;;20.08;;
50350;SDS011;36250;48.740;22.174;2022-12-20T08:10:02;47.42;;;24.02;;
50350;SDS011;36250;48.740;22.174;2022-12-20T08:12:29;52.83;;;24.50;;
50350;SDS011;36250;48.740;22.174;2022-12-20T08:14:56;50.38;;;25.00;;
50350;SDS011;36250;48.740;22.174;2022-12-20T08:17:22;44.92;;;22.67;;
50350;SDS011;36250;48.740;22.174;2022-12-20T08:19:47;33.75;;;18.90;;
50350;SDS011;36250;48.740;22.174;2022-12-20T08:22:15;36.72;;;20.40;;
50350;SDS011;36250;48.740;22.174;2022-12-20T08:24:41;37.85;;;19.20;;
50350;SDS011;36250;48.740;22.174;2022-12-20T08:27:07;47.45;;;21.90;;
50350;SDS011;36250;48.740;22.174;2022-12-20T08:29:32;41.45;;;21.40;;
50350;SDS011;36250;48.740;22.174;2022-12-20T08:31:58;38.47;;;18.73;;
50350;SDS011;36250;48.740;22.174;2022-12-20T08:34:23;39.80;;;19.15;;
50350;SDS011;36250;48.740;22.174;2022-12-20T08:36:48;37.10;;;18.67;;
50350;SDS011;36250;48.740;22.174;2022-12-20T08:39:14;39.70;;;20.27;;
50350;SDS011;36250;48.740;22.174;2022-12-20T08:41:39;43.97;;;21.27;;
50350;SDS011;36250;48.740;22.174;2022-12-20T08:44:05;40.92;;;18.95;;
50350;SDS011;36250;48.740;22.174;2022-12-20T08:46:31;48.40;;;21.27;;
50350;SDS011;36250;48.740;22.174;2022-12-20T08:48:56;32.97;;;17.50;;
50350;SDS011;36250;48.740;22.174;2022-12-20T08:51:21;39.33;;;19.42;;
50350;SDS011;36250;48.740;22.174;2022-12-20T08:53:47;38.17;;;19.73;;
50350;SDS011;36250;48.740;22.174;2022-12-20T08:56:13;47.75;;;21.90;;
50350;SDS011;36250;48.740;22.174;2022-12-20T08:58:40;49.05;;;21.73;;
50350;SDS011;36250;48.740;22.174;2022-12-20T09:01:08;41.35;;;21.25;;
50350;SDS011;36250;48.740;22.174;2022-12-20T09:03:35;53.95;;;24.85;;
50350;SDS011;36250;48.740;22.174;2022-12-20T09:06:05;42.38;;;22.25;;
50350;SDS011;36250;48.740;22.174;2022-12-20T09:08:33;33.42;;;19.55;;
50350;SDS011;36250;48.740;22.174;2022-12-20T09:11:03;32.28;;;17.92;;
50350;SDS011;36250;48.740;22.174;2022-12-20T09:13:30;41.15;;;19.27;;
50350;SDS011;36250;48.740;22.174;2022-12-20T09:15:58;37.10;;;20.65;;
50350;SDS011;36250;48.740;22.174;2022-12-20T09:18:24;34.63;;;18.40;;
50350;SDS011;36250;48.740;22.174;2022-12-20T09:20:50;39.20;;;19.70;;
50350;SDS011;36250;48.740;22.174;2022-12-20T09:23:15;35.40;;;18.50;;
50350;SDS011;36250;48.740;22.174;2022-12-20T09:25:40;54.58;;;24.17;;
50350;SDS011;36250;48.740;22.174;2022-12-20T09:28:05;51.67;;;23.30;;
50350;SDS011;36250;48.740;22.174;2022-12-20T09:30:31;43.72;;;22.08;;
50350;SDS011;36250;48.740;22.174;2022-12-20T09:32:57;36.03;;;19.52;;
50350;SDS011;36250;48.740;22.174;2022-12-20T09:35:22;36.88;;;19.30;;
50350;SDS011;36250;48.740;22.174;2022-12-20T09:37:47;56.15;;;26.55;;
50350;SDS011;36250;48.740;22.174;2022-12-20T09:40:14;43.30;;;21.80;;
50350;SDS011;36250;48.740;22.174;2022-12-20T09:42:43;38.88;;;20.50;;
50350;SDS011;36250;48.740;22.174;2022-12-20T09:45:10;55.92;;;24.73;;
50350;SDS011;36250;48.740;22.174;2022-12-20T09:47:50;72.23;;;28.23;;
50350;SDS011;36250;48.740;22.174;2022-12-20T09:50:16;48.90;;;22.25;;
50350;SDS011;36250;48.740;22.174;2022-12-20T09:55:30;83.70;;;34.00;;
50350;SDS011;36250;48.740;22.174;2022-12-20T10:01:10;41.20;;;22.58;;
50350;SDS011;36250;48.740;22.174;2022-12-20T10:03:41;35.70;;;19.23;;
50350;SDS011;36250;48.740;22.174;2022-12-20T10:16:53;33.85;;;18.50;;
50350;SDS011;36250;48.740;22.174;2022-12-20T10:22:10;45.05;;;22.48;;
50350;SDS011;36250;48.740;22.174;2022-12-20T10:24:53;36.50;;;19.77;;
50350;SDS011;36250;48.740;22.174;2022-12-20T10:27:23;31.70;;;18.83;;
50350;SDS011;36250;48.740;22.174;2022-12-20T10:29:49;36.00;;;18.85;;
50350;SDS011;36250;48.740;22.174;2022-12-20T10:32:18;38.10;;;19.42;;
50350;SDS011;36250;48.740;22.174;2022-12-20T10:34:55;33.45;;;18.65;;
50350;SDS011;36250;48.740;22.174;2022-12-20T10:37:25;40.55;;;20.90;;
50350;SDS011;36250;48.740;22.174;2022-12-20T10:39:50;33.58;;;18.67;;
50350;SDS011;36250;48.740;22.174;2022-12-20T10:42:24;43.33;;;22.55;;
50350;SDS011;36250;48.740;22.174;2022-12-20T10:44:55;48.22;;;22.83;;
50350;SDS011;36250;48.740;22.174;2022-12-20T10:47:30;34.90;;;19.25;;
50350;SDS011;36250;48.740;22.174;2022-12-20T10:50:33;42.25;;;22.35;;
50350;SDS011;36250;48.740;22.174;2022-12-20T10:53:17;38.42;;;19.83;;
50350;SDS011;36250;48.740;22.174;2022-12-20T10:55:45;42.78;;;19.48;;
50350;SDS011;36250;48.740;22.174;2022-12-20T10:58:13;38.72;;;20.80;;
50350;SDS011;36250;48.740;22.174;2022-12-20T11:00:45;39.55;;;19.88;;
50350;SDS011;36250;48.740;22.174;2022-12-20T11:05:40;38.75;;;20.10;;
50350;SDS011;36250;48.740;22.174;2022-12-20T11:08:21;42.95;;;21.13;;
50350;SDS011;36250;48.740;22.174;2022-12-20T11:10:48;40.28;;;19.80;;
50350;SDS011;36250;48.740;22.174;2022-12-20T11:13:19;35.80;;;18.83;;
50350;SDS011;36250;48.740;22.174;2022-12-20T11:15:50;37.33;;;18.33;;
50350;SDS011;36250;48.740;22.174;2022-12-20T11:18:22;36.63;;;20.80;;
50350;SDS011;36250;48.740;22.174;2022-12-20T11:23:25;31.02;;;17.35;;
50350;SDS011;36250;48.740;22.174;2022-12-20T11:31:15;41.53;;;21.60;;
50350;SDS011;36250;48.740;22.174;2022-12-20T11:33:55;43.83;;;23.08;;
50350;SDS011;36250;48.740;22.174;2022-12-20T11:39:17;38.67;;;20.38;;
50350;SDS011;36250;48.740;22.174;2022-12-20T11:41:55;38.75;;;21.90;;
50350;SDS011;36250;48.740;22.174;2022-12-20T11:56:08;37.08;;;20.23;;
50350;SDS011;36250;48.740;22.174;2022-12-20T12:01:12;34.13;;;20.20;;
50350;SDS011;36250;48.740;22.174;2022-12-20T12:03:59;36.22;;;21.13;;
50350;SDS011;36250;48.740;22.174;2022-12-20T12:06:30;38.25;;;20.52;;
50350;SDS011;36250;48.740;22.174;2022-12-20T12:11:42;45.50;;;21.60;;
50350;SDS011;36250;48.740;22.174;2022-12-20T12:14:16;42.55;;;22.40;;
50350;SDS011;36250;48.740;22.174;2022-12-20T12:16:50;45.10;;;25.15;;
50350;SDS011;36250;48.740;22.174;2022-12-20T12:19:21;49.70;;;25.08;;
50350;SDS011;36250;48.740;22.174;2022-12-20T12:21:57;47.85;;;26.02;;
50350;SDS011;36250;48.740;22.174;2022-12-20T12:24:42;41.80;;;22.95;;
50350;SDS011;36250;48.740;22.174;2022-12-20T12:27:14;51.83;;;27.60;;
50350;SDS011;36250;48.740;22.174;2022-12-20T12:29:46;53.95;;;28.35;;
50350;SDS011;36250;48.740;22.174;2022-12-20T12:37:16;46.35;;;25.55;;
50350;SDS011;36250;48.740;22.174;2022-12-20T12:47:59;38.80;;;22.55;;
50350;SDS011;36250;48.740;22.174;2022-12-20T12:50:31;32.88;;;19.83;;
50350;SDS011;36250;48.740;22.174;2022-12-20T12:53:11;38.00;;;19.60;;
50350;SDS011;36250;48.740;22.174;2022-12-20T12:55:41;39.72;;;22.90;;
50350;SDS011;36250;48.740;22.174;2022-12-20T12:58:14;38.03;;;23.08;;
50350;SDS011;36250;48.740;22.174;2022-12-20T13:00:47;40.28;;;23.27;;
50350;SDS011;36250;48.740;22.174;2022-12-20T13:11:32;44.92;;;22.65;;
50350;SDS011;36250;48.740;22.174;2022-12-20T13:16:41;39.38;;;20.85;;
50350;SDS011;36250;48.740;22.174;2022-12-20T13:19:15;32.72;;;19.05;;
50350;SDS011;36250;48.740;22.174;2022-12-20T13:21:43;38.67;;;19.17;;
50350;SDS011;36250;48.740;22.174;2022-12-20T13:24:29;35.75;;;18.80;;
50350;SDS011;36250;48.740;22.174;2022-12-20T13:26:55;40.50;;;21.42;;
50350;SDS011;36250;48.740;22.174;2022-12-20T13:29:23;40.47;;;20.90;;
50350;SDS011;36250;48.740;22.174;2022-12-20T13:31:50;38.65;;;22.05;;
50350;SDS011;36250;48.740;22.174;2022-12-20T13:34:34;30.85;;;19.38;;
50350;SDS011;36250;48.740;22.174;2022-12-20T13:37:50;43.80;;;22.98;;
50350;SDS011;36250;48.740;22.174;2022-12-20T13:40:32;46.72;;;24.73;;
50350;SDS011;36250;48.740;22.174;2022-12-20T13:43:44;42.85;;;24.20;;
50350;SDS011;36250;48.740;22.174;2022-12-20T13:48:30;43.65;;;24.13;;
50350;SDS011;36250;48.740;22.174;2022-12-20T13:51:03;46.15;;;24.30;;
50350;SDS011;36250;48.740;22.174;2022-12-20T13:53:31;56.83;;;29.30;;
50350;SDS011;36250;48.740;22.174;2022-12-20T13:55:57;55.83;;;27.98;;
50350;SDS011;36250;48.740;22.174;2022-12-20T13:58:24;45.13;;;26.80;;
50350;SDS011;36250;48.740;22.174;2022-12-20T14:00:52;49.80;;;25.58;;
50350;SDS011;36250;48.740;22.174;2022-12-20T14:06:01;50.60;;;25.23;;
50350;SDS011;36250;48.740;22.174;2022-12-20T14:08:30;47.33;;;26.10;;
50350;SDS011;36250;48.740;22.174;2022-12-20T14:11:17;57.30;;;28.60;;
50350;SDS011;36250;48.740;22.174;2022-12-20T14:14:10;64.35;;;33.40;;
50350;SDS011;36250;48.740;22.174;2022-12-20T14:16:36;54.13;;;30.27;;
50350;SDS011;36250;48.740;22.174;2022-12-20T14:19:03;61.00;;;32.00;;
50350;SDS011;36250;48.740;22.174;2022-12-20T14:21:32;49.55;;;27.33;;
50350;SDS011;36250;48.740;22.174;2022-12-20T14:24:00;56.88;;;29.75;;
50350;SDS011;36250;48.740;22.174;2022-12-20T14:26:27;113.05;;;50.28;;
50350;SDS011;36250;48.740;22.174;2022-12-20T14:28:57;80.38;;;38.13;;
50350;SDS011;36250;48.740;22.174;2022-12-20T14:31:36;92.45;;;39.42;;
50350;SDS011;36250;48.740;22.174;2022-12-20T14:36:42;80.13;;;36.22;;
50350;SDS011;36250;48.740;22.174;2022-12-20T14:39:31;107.40;;;44.95;;
50350;SDS011;36250;48.740;22.174;2022-12-20T14:41:59;117.80;;;46.60;;
50350;SDS011;36250;48.740;22.174;2022-12-20T14:44:27;114.95;;;51.50;;
50350;SDS011;36250;48.740;22.174;2022-12-20T14:46:55;88.20;;;38.80;;
50350;SDS011;36250;48.740;22.174;2022-12-20T14:49:28;53.20;;;27.60;;
50350;SDS011;36250;48.740;22.174;2022-12-20T14:57:23;58.83;;;32.63;;
50350;SDS011;36250;48.740;22.174;2022-12-20T15:10:37;36.25;;;21.65;;
50350;SDS011;36250;48.740;22.174;2022-12-20T15:13:08;40.88;;;21.60;;
50350;SDS011;36250;48.740;22.174;2022-12-20T15:15:36;35.95;;;22.05;;
50350;SDS011;36250;48.740;22.174;2022-12-20T15:18:06;39.72;;;20.35;;
50350;SDS011;36250;48.740;22.174;2022-12-20T15:20:35;47.45;;;20.92;;
50350;SDS011;36250;48.740;22.174;2022-12-20T15:23:00;41.50;;;20.98;;
50350;SDS011;36250;48.740;22.174;2022-12-20T15:25:25;36.60;;;22.15;;
50350;SDS011;36250;48.740;22.174;2022-12-20T15:27:51;36.95;;;20.67;;
50350;SDS011;36250;48.740;22.174;2022-12-20T15:30:16;35.85;;;20.63;;
50350;SDS011;36250;48.740;22.174;2022-12-20T15:32:42;36.80;;;20.45;;
50350;SDS011;36250;48.740;22.174;2022-12-20T15:35:14;37.45;;;20.90;;
50350;SDS011;36250;48.740;22.174;2022-12-20T15:37:40;41.00;;;20.27;;
50350;SDS011;36250;48.740;22.174;2022-12-20T15:40:06;42.20;;;21.10;;
50350;SDS011;36250;48.740;22.174;2022-12-20T15:42:32;39.35;;;20.85;;
50350;SDS011;36250;48.740;22.174;2022-12-20T15:44:57;42.33;;;22.65;;
50350;SDS011;36250;48.740;22.174;2022-12-20T15:47:22;42.25;;;23.05;;
50350;SDS011;36250;48.740;22.174;2022-12-20T15:49:48;83.88;;;42.42;;
50350;SDS011;36250;48.740;22.174;2022-12-20T15:52:20;287.95;;;137.90;;
50350;SDS011;36250;48.740;22.174;2022-12-20T15:54:46;134.35;;;65.28;;
50350;SDS011;36250;48.740;22.174;2022-12-20T15:57:12;120.57;;;66.35;;
50350;SDS011;36250;48.740;22.174;2022-12-20T15:59:39;124.82;;;67.35;;
50350;SDS011;36250;48.740;22.174;2022-12-20T16:04:46;110.18;;;56.70;;
50350;SDS011;36250;48.740;22.174;2022-12-20T16:07:11;106.25;;;56.17;;